createdAt,value
2022-09-17T00:03:23.163Z,8.58
2022-09-17T00:08:25.887Z,8.59
2022-09-17T00:13:28.738Z,8.69
2022-09-17T00:18:31.424Z,8.81
2022-09-17T00:23:37.751Z,8.84
2022-09-17T00:28:41.833Z,8.87
2022-09-17T00:33:44.546Z,8.91
2022-09-17T00:38:47.542Z,8.92
2022-09-17T00:43:51.037Z,8.89
2022-09-17T00:48:53.752Z,8.94
2022-09-17T00:53:56.639Z,8.92
2022-09-17T00:58:59.507Z,8.89
2022-09-17T01:04:02.454Z,8.87
2022-09-17T01:09:05.270Z,8.71
2022-09-17T01:14:07.949Z,8.68
2022-09-17T01:19:11.237Z,8.75
2022-09-17T01:24:14.469Z,8.80
2022-09-17T01:29:17.241Z,8.83
2022-09-17T01:34:20.346Z,8.75
2022-09-17T01:39:23.209Z,8.77
2022-09-17T01:44:26.014Z,8.77
2022-09-17T01:49:33.857Z,8.79
2022-09-17T01:54:40.384Z,8.81
2022-09-17T01:59:45.156Z,8.83
2022-09-17T02:04:47.868Z,8.79
2022-09-17T02:09:51.110Z,8.75
2022-09-17T02:14:53.924Z,8.76
2022-09-17T02:19:56.617Z,8.74
2022-09-17T02:24:59.418Z,8.70
2022-09-17T02:30:02.114Z,8.71
2022-09-17T02:35:06.539Z,8.66
2022-09-17T02:40:09.303Z,8.58
2022-09-17T02:45:12.134Z,8.52
2022-09-17T02:50:17.159Z,8.44
2022-09-17T02:55:20.293Z,8.35
2022-09-17T03:00:23.102Z,8.32
2022-09-17T03:05:25.771Z,8.30
2022-09-17T03:10:33.787Z,8.26
2022-09-17T03:15:36.774Z,8.17
2022-09-17T03:20:39.564Z,8.05
2022-09-17T03:25:43.084Z,7.95
2022-09-17T03:30:45.985Z,7.93
2022-09-17T03:35:48.754Z,7.90
2022-09-17T03:40:54.332Z,7.83
2022-09-17T03:45:56.984Z,7.73
2022-09-17T03:50:59.658Z,7.53
2022-09-17T03:56:02.653Z,7.28
2022-09-17T04:01:05.730Z,7.17
2022-09-17T04:06:08.425Z,7.16
2022-09-17T04:11:11.222Z,7.00
2022-09-17T04:16:16.097Z,7.04
2022-09-17T04:21:20.870Z,6.96
2022-09-17T04:26:23.647Z,6.96
2022-09-17T04:31:27.270Z,7.03
2022-09-17T04:36:30.078Z,7.08
2022-09-17T04:41:32.935Z,7.21
2022-09-17T04:46:35.932Z,7.22
2022-09-17T04:51:38.736Z,7.46
2022-09-17T04:56:41.448Z,7.47
2022-09-17T05:01:44.350Z,7.72
2022-09-17T05:06:52.382Z,7.90
2022-09-17T05:11:55.090Z,8.08
2022-09-17T05:16:58.359Z,8.20
2022-09-17T05:22:01.161Z,8.21
2022-09-17T05:27:04.258Z,8.24
2022-09-17T05:32:06.971Z,8.25
2022-09-17T05:37:09.767Z,8.17
2022-09-17T05:42:12.487Z,8.22
2022-09-17T05:47:15.219Z,8.22
2022-09-17T05:52:17.898Z,8.11
2022-09-17T05:57:21.890Z,8.09
2022-09-17T06:02:24.697Z,8.04
2022-09-17T06:07:27.387Z,8.13
2022-09-17T06:12:35.709Z,8.22
2022-09-17T06:17:38.606Z,8.32
2022-09-17T06:22:41.318Z,8.45
2022-09-17T06:27:44.384Z,8.58
2022-09-17T06:32:47.321Z,8.32
2022-09-17T06:37:50.394Z,8.34
2022-09-17T06:42:53.084Z,8.38
2022-09-17T06:47:56.270Z,8.44
2022-09-17T06:52:59.400Z,8.64
2022-09-17T06:58:02.117Z,8.70
2022-09-17T07:03:04.802Z,8.61
2022-09-17T07:08:07.494Z,8.56
2022-09-17T07:13:10.191Z,8.72
2022-09-17T07:18:12.905Z,8.90
2022-09-17T07:23:15.646Z,8.83
2022-09-17T07:28:18.414Z,9.37
2022-09-17T07:33:23.288Z,9.21
2022-09-17T07:38:26.040Z,9.19
2022-09-17T07:43:28.717Z,9.59
2022-09-17T07:48:31.434Z,9.80
2022-09-17T07:53:34.349Z,9.81
2022-09-17T07:58:37.246Z,9.76
2022-09-17T08:03:40.247Z,10.03
2022-09-17T08:08:43.283Z,9.88
2022-09-17T08:13:45.993Z,9.95
2022-09-17T08:18:48.903Z,10.61
2022-09-17T08:23:51.722Z,10.45
2022-09-17T08:28:55.207Z,10.19
2022-09-17T08:33:58.086Z,10.37
2022-09-17T08:39:01.078Z,10.21
2022-09-17T08:44:04.083Z,10.23
2022-09-17T08:49:06.917Z,10.31
2022-09-17T08:54:10.088Z,9.92
2022-09-17T08:59:12.792Z,9.86
2022-09-17T09:04:15.677Z,9.98
2022-09-17T09:09:18.513Z,10.14
2022-09-17T09:14:21.699Z,10.54
2022-09-17T09:19:24.542Z,10.23
2022-09-17T09:24:28.707Z,10.25
2022-09-17T09:29:31.465Z,10.48
2022-09-17T09:34:34.126Z,9.94
2022-09-17T09:39:42.636Z,9.53
2022-09-17T09:44:48.892Z,9.78
2022-09-17T09:49:53.565Z,9.68
2022-09-17T09:54:56.207Z,10.02
2022-09-17T09:59:59.011Z,9.96
2022-09-17T10:05:01.730Z,9.42
2022-09-17T10:10:04.890Z,8.60
2022-09-17T10:15:07.714Z,8.39
2022-09-17T10:20:12.507Z,8.65
2022-09-17T10:25:15.200Z,8.52
2022-09-17T10:30:18.008Z,8.61
2022-09-17T10:35:20.892Z,9.09
2022-09-17T10:40:24.075Z,9.49
2022-09-17T10:45:26.893Z,9.41
2022-09-17T10:50:29.697Z,9.21
2022-09-17T10:55:40.850Z,9.19
2022-09-17T11:00:44.195Z,9.39
2022-09-17T11:05:47.050Z,9.59
2022-09-17T11:10:49.788Z,9.93
2022-09-17T11:15:53.263Z,10.46
2022-09-17T11:20:56.237Z,10.31
2022-09-17T11:26:00.810Z,10.24
2022-09-17T11:31:04.446Z,9.61
2022-09-17T11:36:07.420Z,8.08
2022-09-17T11:41:10.096Z,7.66
2022-09-17T11:46:12.805Z,8.45
2022-09-17T11:51:15.870Z,8.91
2022-09-17T11:56:18.568Z,9.70
2022-09-17T12:01:21.238Z,10.10
2022-09-17T12:06:24.323Z,10.26
2022-09-17T12:11:32.094Z,10.00
2022-09-17T12:16:34.901Z,9.19
2022-09-17T12:21:37.657Z,8.74
2022-09-17T12:26:40.376Z,9.45
2022-09-17T12:31:43.123Z,9.94
2022-09-17T12:36:48.730Z,10.08
2022-09-17T12:41:51.551Z,10.18
2022-09-17T12:46:54.265Z,10.15
2022-09-17T12:51:57.288Z,10.15
2022-09-17T12:57:00.050Z,10.69
2022-09-17T13:02:02.813Z,10.44
2022-09-17T13:07:05.924Z,10.32
2022-09-17T13:12:08.969Z,9.72
2022-09-17T13:17:11.689Z,9.25
2022-09-17T13:22:14.377Z,9.34
2022-09-17T13:27:17.107Z,9.73
2022-09-17T13:32:20.093Z,9.69
2022-09-17T13:37:23.649Z,9.59
2022-09-17T13:42:28.057Z,9.67
2022-09-17T13:47:30.823Z,9.79
2022-09-17T13:52:33.575Z,10.35
2022-09-17T13:57:36.641Z,10.96
2022-09-17T14:02:39.895Z,11.49
2022-09-17T14:07:42.802Z,11.41
2022-09-17T14:12:47.783Z,11.11
2022-09-17T14:17:51.862Z,10.83
2022-09-17T14:22:54.809Z,10.94
2022-09-17T14:27:57.930Z,11.28
2022-09-17T14:33:00.729Z,11.21
2022-09-17T14:38:03.549Z,11.11
2022-09-17T14:43:06.359Z,10.79
2022-09-17T14:48:09.273Z,10.54
2022-09-17T14:53:11.964Z,10.69
2022-09-17T14:58:14.683Z,10.87
2022-09-17T15:03:17.556Z,10.94
2022-09-17T15:08:21.214Z,10.94
2022-09-17T15:13:24.053Z,10.80
2022-09-17T15:18:27.145Z,10.57
2022-09-17T15:23:32.667Z,10.23
2022-09-17T15:28:35.673Z,10.08
2022-09-17T15:33:38.673Z,9.73
2022-09-17T15:38:42.712Z,9.70
2022-09-17T15:43:45.545Z,9.60
2022-09-17T15:48:48.665Z,9.54
2022-09-17T15:53:51.460Z,9.42
2022-09-17T15:58:54.917Z,9.46
2022-09-17T16:03:58.135Z,9.49
2022-09-17T16:09:01.023Z,9.35
2022-09-17T16:14:03.982Z,9.34
2022-09-17T16:19:07.014Z,9.35
2022-09-17T16:24:09.693Z,9.25
2022-09-17T16:29:12.565Z,9.16
2022-09-17T16:34:15.959Z,9.21
2022-09-17T16:39:19.230Z,9.05
2022-09-17T16:44:21.879Z,8.94
2022-09-17T16:49:24.625Z,8.68
2022-09-17T16:54:27.316Z,8.63
2022-09-17T16:59:30.186Z,8.53
2022-09-17T17:04:32.915Z,8.34
2022-09-17T17:09:35.809Z,8.12
2022-09-17T17:14:38.575Z,8.02
2022-09-17T17:19:41.345Z,7.82
2022-09-17T17:24:44.040Z,7.72
2022-09-17T17:29:50.260Z,7.63
2022-09-17T17:34:52.979Z,7.58
2022-09-17T17:39:56.421Z,7.57
2022-09-17T17:45:01.575Z,7.50
2022-09-17T17:50:04.362Z,7.51
2022-09-17T17:55:07.185Z,7.43
2022-09-17T18:00:10.947Z,7.53
2022-09-17T18:05:13.605Z,7.48
2022-09-17T18:10:16.354Z,7.51
2022-09-17T18:15:19.093Z,7.58
2022-09-17T18:20:22.725Z,7.81
2022-09-17T18:25:25.552Z,7.91
2022-09-17T18:30:29.052Z,8.06
2022-09-17T18:35:31.762Z,8.12
2022-09-17T18:40:35.115Z,8.04
2022-09-17T18:45:39.516Z,8.03
2022-09-17T18:50:42.433Z,7.99
2022-09-17T18:55:45.441Z,7.85
2022-09-17T19:00:48.541Z,7.66
2022-09-17T19:05:51.403Z,7.59
2022-09-17T19:10:54.246Z,7.58
2022-09-17T19:15:57.187Z,7.66
2022-09-17T19:21:00.217Z,7.66
2022-09-17T19:26:03.086Z,7.71
2022-09-17T19:31:05.931Z,7.79
2022-09-17T19:36:11.264Z,7.81
2022-09-17T19:41:14.273Z,7.85
2022-09-17T19:46:17.870Z,7.90
2022-09-17T19:51:20.780Z,7.97
2022-09-17T19:56:23.539Z,8.01
2022-09-17T20:01:26.400Z,8.01
2022-09-17T20:06:29.289Z,7.98
2022-09-17T20:11:32.117Z,8.02
2022-09-17T20:16:34.900Z,8.07
2022-09-17T20:21:37.702Z,8.10
2022-09-17T20:26:40.458Z,7.93
2022-09-17T20:31:43.585Z,7.50
2022-09-17T20:36:46.770Z,7.40
2022-09-17T20:41:49.526Z,7.30
2022-09-17T20:46:54.682Z,7.21
2022-09-17T20:52:00.392Z,7.21
2022-09-17T20:57:03.126Z,7.23
2022-09-17T21:02:05.898Z,7.25
2022-09-17T21:07:08.734Z,7.23
2022-09-17T21:12:11.579Z,7.18
2022-09-17T21:17:14.383Z,7.08
2022-09-17T21:22:17.132Z,6.94
2022-09-17T21:27:20.032Z,6.83
2022-09-17T21:32:22.783Z,6.77
2022-09-17T21:37:26.788Z,6.74
2022-09-17T21:42:30.781Z,6.65
2022-09-17T21:47:33.561Z,6.56
2022-09-17T21:52:36.348Z,6.45
2022-09-17T21:57:39.063Z,6.37
2022-09-17T22:02:41.907Z,6.30
2022-09-17T22:07:44.790Z,6.24
2022-09-17T22:12:47.593Z,6.21
2022-09-17T22:17:50.339Z,6.08
2022-09-17T22:22:53.531Z,5.91
2022-09-17T22:28:19.501Z,5.87
2022-09-17T22:33:19.322Z,5.73
2022-09-17T22:38:22.120Z,5.75
2022-09-17T22:43:27.599Z,5.69
2022-09-17T22:48:30.869Z,5.65
2022-09-17T22:53:34.165Z,5.61
2022-09-17T22:58:37.348Z,5.54
2022-09-17T23:03:40.756Z,5.59
2022-09-17T23:08:44.006Z,5.55
2022-09-17T23:13:47.332Z,5.70
2022-09-17T23:18:50.686Z,5.76
2022-09-17T23:23:54.022Z,5.76
2022-09-17T23:29:01.116Z,5.76
2022-09-17T23:34:07.274Z,5.83
2022-09-17T23:39:12.236Z,5.91
2022-09-17T23:44:16.407Z,5.93
2022-09-17T23:49:19.735Z,6.01
2022-09-17T23:54:23.070Z,6.04
2022-09-17T23:59:26.422Z,6.10
